<?xml version="1.0" encoding="UTF-8"?><gpx version="1.1" creator="Relive" xmlns="http://www.topografix.com/GPX/1/1" xmlns:xsi="http://www.w3.org/2001/XMLSchema-instance" xsi:schemaLocation="http://www.topografix.com/GPX/1/1 http://www.topografix.com/GPX/1/1/gpx.xsd http://www.garmin.com/xmlschemas/TrackPointExtension/v1 http://www.garmin.com/xmlschemas/TrackPointExtensionv1.xsd http://www.garmin.com/xmlschemas/GpxExtensions/v3 http://www.garmin.com/xmlschemas/GpxExtensionsv3.xsd" xmlns:gpxtpx="http://www.garmin.com/xmlschemas/TrackPointExtension/v1" xmlns:gpxx="http://www.garmin.com/xmlschemas/GpxExtensions/v3"><metadata><time>2023-07-05T12:42:39.000Z</time><name>Pytlak trail</name></metadata><trk><trkseg><trkpt lat="48.749459" lon="17.705722"><time>2023-07-05T12:42:39.000Z</time><ele>376.62</ele></trkpt><trkpt lat="48.749411" lon="17.705772"><time>2023-07-05T12:43:38.000Z</time><ele>380.5</ele></trkpt><trkpt lat="48.749334" lon="17.705802"><time>2023-07-05T12:43:41.000Z</time><ele>381.22</ele></trkpt><trkpt lat="48.749262" lon="17.705812"><time>2023-07-05T12:43:43.000Z</time><ele>378.15</ele></trkpt><trkpt lat="48.749187" lon="17.705809"><time>2023-07-05T12:43:45.000Z</time><ele>376.58</ele></trkpt><trkpt lat="48.749139" lon="17.705824"><time>2023-07-05T12:43:46.000Z</time><ele>375.64</ele></trkpt><trkpt lat="48.749095" lon="17.70585"><time>2023-07-05T12:43:47.000Z</time><ele>378.42</ele></trkpt><trkpt lat="48.749011" lon="17.705904"><time>2023-07-05T12:43:49.000Z</time><ele>375.62</ele></trkpt><trkpt lat="48.748969" lon="17.705936"><time>2023-07-05T12:43:50.000Z</time><ele>375.25</ele></trkpt><trkpt lat="48.748888" lon="17.705987"><time>2023-07-05T12:43:52.000Z</time><ele>374.94</ele></trkpt><trkpt lat="48.748815" lon="17.705936"><time>2023-07-05T12:43:54.000Z</time><ele>375.71</ele></trkpt><trkpt lat="48.748754" lon="17.70584"><time>2023-07-05T12:43:56.000Z</time><ele>375.44</ele></trkpt><trkpt lat="48.748719" lon="17.705767"><time>2023-07-05T12:43:57.000Z</time><ele>374.67</ele></trkpt><trkpt lat="48.748681" lon="17.705711"><time>2023-07-05T12:43:58.000Z</time><ele>374.1</ele></trkpt><trkpt lat="48.748637" lon="17.705676"><time>2023-07-05T12:43:59.000Z</time><ele>374.37</ele></trkpt><trkpt lat="48.748523" lon="17.705696"><time>2023-07-05T12:44:01.000Z</time><ele>374.31</ele></trkpt><trkpt lat="48.74846" lon="17.705725"><time>2023-07-05T12:44:02.000Z</time><ele>374.03</ele></trkpt><trkpt lat="48.748384" lon="17.705745"><time>2023-07-05T12:44:04.000Z</time><ele>371.22</ele></trkpt><trkpt lat="48.748307" lon="17.705698"><time>2023-07-05T12:44:06.000Z</time><ele>370.63</ele></trkpt><trkpt lat="48.748262" lon="17.705597"><time>2023-07-05T12:44:08.000Z</time><ele>370.63</ele></trkpt><trkpt lat="48.74819" lon="17.705594"><time>2023-07-05T12:44:10.000Z</time><ele>370.34</ele></trkpt><trkpt lat="48.748144" lon="17.705635"><time>2023-07-05T12:44:11.000Z</time><ele>372.17</ele></trkpt><trkpt lat="48.748106" lon="17.705672"><time>2023-07-05T12:44:12.000Z</time><ele>372.78</ele></trkpt><trkpt lat="48.748032" lon="17.705717"><time>2023-07-05T12:44:14.000Z</time><ele>370.81</ele></trkpt><trkpt lat="48.747946" lon="17.705679"><time>2023-07-05T12:44:16.000Z</time><ele>370.49</ele></trkpt><trkpt lat="48.7478" lon="17.705637"><time>2023-07-05T12:44:19.000Z</time><ele>367.04</ele></trkpt><trkpt lat="48.74774" lon="17.705618"><time>2023-07-05T12:44:21.000Z</time><ele>366.19</ele></trkpt><trkpt lat="48.747716" lon="17.705524"><time>2023-07-05T12:44:23.000Z</time><ele>366.19</ele></trkpt><trkpt lat="48.747631" lon="17.705409"><time>2023-07-05T12:44:26.000Z</time><ele>363.46</ele></trkpt><trkpt lat="48.747586" lon="17.705405"><time>2023-07-05T12:44:27.000Z</time><ele>360.98</ele></trkpt><trkpt lat="48.747521" lon="17.70534"><time>2023-07-05T12:44:29.000Z</time><ele>359.26</ele></trkpt><trkpt lat="48.747554" lon="17.705252"><time>2023-07-05T12:44:31.000Z</time><ele>357.86</ele></trkpt><trkpt lat="48.747532" lon="17.705166"><time>2023-07-05T12:44:33.000Z</time><ele>356.12</ele></trkpt><trkpt lat="48.747445" lon="17.705142"><time>2023-07-05T12:44:35.000Z</time><ele>356.73</ele></trkpt><trkpt lat="48.7474" lon="17.705122"><time>2023-07-05T12:44:36.000Z</time><ele>356.73</ele></trkpt><trkpt lat="48.747323" lon="17.70508"><time>2023-07-05T12:44:38.000Z</time><ele>355.99</ele></trkpt><trkpt lat="48.747292" lon="17.705025"><time>2023-07-05T12:44:40.000Z</time><ele>354.18</ele></trkpt><trkpt lat="48.747247" lon="17.704953"><time>2023-07-05T12:44:51.000Z</time><ele>353.37</ele></trkpt><trkpt lat="48.747215" lon="17.704899"><time>2023-07-05T12:44:54.000Z</time><ele>351.44</ele></trkpt><trkpt lat="48.747152" lon="17.704899"><time>2023-07-05T12:44:56.000Z</time><ele>350.2</ele></trkpt><trkpt lat="48.747073" lon="17.704906"><time>2023-07-05T12:44:58.000Z</time><ele>347.42</ele></trkpt><trkpt lat="48.747016" lon="17.70489"><time>2023-07-05T12:45:00.000Z</time><ele>346.5</ele></trkpt><trkpt lat="48.746971" lon="17.70489"><time>2023-07-05T12:45:23.000Z</time><ele>345.35</ele></trkpt><trkpt lat="48.746919" lon="17.70494"><time>2023-07-05T12:45:35.000Z</time><ele>346.46</ele></trkpt><trkpt lat="48.746866" lon="17.704986"><time>2023-07-05T12:45:37.000Z</time><ele>346.74</ele></trkpt><trkpt lat="48.74667" lon="17.70496"><time>2023-07-05T12:45:42.000Z</time><ele>343.2</ele></trkpt><trkpt lat="48.746622" lon="17.704954"><time>2023-07-05T12:45:44.000Z</time><ele>342.74</ele></trkpt><trkpt lat="48.746559" lon="17.704914"><time>2023-07-05T12:45:46.000Z</time><ele>341.52</ele></trkpt><trkpt lat="48.746466" lon="17.704889"><time>2023-07-05T12:45:48.000Z</time><ele>341.45</ele></trkpt><trkpt lat="48.746395" lon="17.704869"><time>2023-07-05T12:45:50.000Z</time><ele>340.33</ele></trkpt><trkpt lat="48.746339" lon="17.704851"><time>2023-07-05T12:45:51.000Z</time><ele>339.7</ele></trkpt><trkpt lat="48.746272" lon="17.704801"><time>2023-07-05T12:45:53.000Z</time><ele>337.91</ele></trkpt><trkpt lat="48.7462" lon="17.704778"><time>2023-07-05T12:45:55.000Z</time><ele>336.47</ele></trkpt><trkpt lat="48.746149" lon="17.704779"><time>2023-07-05T12:45:56.000Z</time><ele>336.46</ele></trkpt><trkpt lat="48.746043" lon="17.704825"><time>2023-07-05T12:45:58.000Z</time><ele>334.82</ele></trkpt><trkpt lat="48.745961" lon="17.704888"><time>2023-07-05T12:46:00.000Z</time><ele>333.2</ele></trkpt><trkpt lat="48.745881" lon="17.70487"><time>2023-07-05T12:46:02.000Z</time><ele>332.35</ele></trkpt><trkpt lat="48.745775" lon="17.704884"><time>2023-07-05T12:46:04.000Z</time><ele>330.83</ele></trkpt><trkpt lat="48.745691" lon="17.704942"><time>2023-07-05T12:46:06.000Z</time><ele>331.17</ele></trkpt><trkpt lat="48.745639" lon="17.704948"><time>2023-07-05T12:46:07.000Z</time><ele>330.87</ele></trkpt><trkpt lat="48.74559" lon="17.704956"><time>2023-07-05T12:46:08.000Z</time><ele>329.55</ele></trkpt><trkpt lat="48.745499" lon="17.705038"><time>2023-07-05T12:46:10.000Z</time><ele>330.1</ele></trkpt><trkpt lat="48.745429" lon="17.705074"><time>2023-07-05T12:46:11.000Z</time><ele>329.64</ele></trkpt><trkpt lat="48.745383" lon="17.705071"><time>2023-07-05T12:46:12.000Z</time><ele>329.2</ele></trkpt><trkpt lat="48.745332" lon="17.705098"><time>2023-07-05T12:46:13.000Z</time><ele>328.72</ele></trkpt><trkpt lat="48.745277" lon="17.705141"><time>2023-07-05T12:46:14.000Z</time><ele>327.63</ele></trkpt><trkpt lat="48.745231" lon="17.705151"><time>2023-07-05T12:46:15.000Z</time><ele>327.56</ele></trkpt><trkpt lat="48.745178" lon="17.705149"><time>2023-07-05T12:46:16.000Z</time><ele>327.03</ele></trkpt><trkpt lat="48.745141" lon="17.705109"><time>2023-07-05T12:46:17.000Z</time><ele>326.1</ele></trkpt><trkpt lat="48.745081" lon="17.70511"><time>2023-07-05T12:46:18.000Z</time><ele>324.74</ele></trkpt><trkpt lat="48.745016" lon="17.7051"><time>2023-07-05T12:46:19.000Z</time><ele>324.09</ele></trkpt><trkpt lat="48.744961" lon="17.705097"><time>2023-07-05T12:46:20.000Z</time><ele>322.79</ele></trkpt><trkpt lat="48.744909" lon="17.705112"><time>2023-07-05T12:46:21.000Z</time><ele>322.31</ele></trkpt><trkpt lat="48.744841" lon="17.705142"><time>2023-07-05T12:46:23.000Z</time><ele>322.11</ele></trkpt><trkpt lat="48.744753" lon="17.705161"><time>2023-07-05T12:46:25.000Z</time><ele>319.32</ele></trkpt><trkpt lat="48.744707" lon="17.705152"><time>2023-07-05T12:46:26.000Z</time><ele>318.35</ele></trkpt><trkpt lat="48.744653" lon="17.705166"><time>2023-07-05T12:46:27.000Z</time><ele>317.54</ele></trkpt><trkpt lat="48.744559" lon="17.705123"><time>2023-07-05T12:46:29.000Z</time><ele>314.43</ele></trkpt><trkpt lat="48.744501" lon="17.705099"><time>2023-07-05T12:46:30.000Z</time><ele>313.21</ele></trkpt><trkpt lat="48.744444" lon="17.705089"><time>2023-07-05T12:46:31.000Z</time><ele>312.14</ele></trkpt><trkpt lat="48.744388" lon="17.705103"><time>2023-07-05T12:46:32.000Z</time><ele>312.58</ele></trkpt><trkpt lat="48.744324" lon="17.705112"><time>2023-07-05T12:46:33.000Z</time><ele>312.35</ele></trkpt><trkpt lat="48.744278" lon="17.705109"><time>2023-07-05T12:46:34.000Z</time><ele>312.32</ele></trkpt><trkpt lat="48.744208" lon="17.705128"><time>2023-07-05T12:46:36.000Z</time><ele>311.99</ele></trkpt><trkpt lat="48.74416" lon="17.705137"><time>2023-07-05T12:46:37.000Z</time><ele>310.5</ele></trkpt><trkpt lat="48.744115" lon="17.705152"><time>2023-07-05T12:46:38.000Z</time><ele>309.91</ele></trkpt><trkpt lat="48.744023" lon="17.705174"><time>2023-07-05T12:46:40.000Z</time><ele>309.99</ele></trkpt><trkpt lat="48.743952" lon="17.705175"><time>2023-07-05T12:46:41.000Z</time><ele>310.26</ele></trkpt><trkpt lat="48.743898" lon="17.705176"><time>2023-07-05T12:46:42.000Z</time><ele>309.28</ele></trkpt><trkpt lat="48.743814" lon="17.705093"><time>2023-07-05T12:46:45.000Z</time><ele>307.05</ele></trkpt><trkpt lat="48.743745" lon="17.705088"><time>2023-07-05T12:46:46.000Z</time><ele>306.6</ele></trkpt><trkpt lat="48.743682" lon="17.705064"><time>2023-07-05T12:46:47.000Z</time><ele>305.29</ele></trkpt><trkpt lat="48.743625" lon="17.705051"><time>2023-07-05T12:46:48.000Z</time><ele>302.71</ele></trkpt><trkpt lat="48.743531" lon="17.705074"><time>2023-07-05T12:46:50.000Z</time><ele>303.15</ele></trkpt><trkpt lat="48.743475" lon="17.705079"><time>2023-07-05T12:46:51.000Z</time><ele>302.55</ele></trkpt><trkpt lat="48.743402" lon="17.70504"><time>2023-07-05T12:46:53.000Z</time><ele>299.95</ele></trkpt><trkpt lat="48.743327" lon="17.705024"><time>2023-07-05T12:46:55.000Z</time><ele>299.51</ele></trkpt><trkpt lat="48.743223" lon="17.704981"><time>2023-07-05T12:46:57.000Z</time><ele>297.19</ele></trkpt><trkpt lat="48.743174" lon="17.704981"><time>2023-07-05T12:46:58.000Z</time><ele>296.27</ele></trkpt><trkpt lat="48.743126" lon="17.704956"><time>2023-07-05T12:46:59.000Z</time><ele>297.61</ele></trkpt><trkpt lat="48.74307" lon="17.704967"><time>2023-07-05T12:47:00.000Z</time><ele>296.06</ele></trkpt><trkpt lat="48.743019" lon="17.704959"><time>2023-07-05T12:47:01.000Z</time><ele>294.62</ele></trkpt><trkpt lat="48.74297" lon="17.704944"><time>2023-07-05T12:47:02.000Z</time><ele>292.34</ele></trkpt><trkpt lat="48.742923" lon="17.70493"><time>2023-07-05T12:47:03.000Z</time><ele>290.96</ele></trkpt><trkpt lat="48.742842" lon="17.704937"><time>2023-07-05T12:47:05.000Z</time><ele>289.88</ele></trkpt><trkpt lat="48.742761" lon="17.704884"><time>2023-07-05T12:47:07.000Z</time><ele>288.51</ele></trkpt><trkpt lat="48.742684" lon="17.704817"><time>2023-07-05T12:47:09.000Z</time><ele>285.57</ele></trkpt><trkpt lat="48.742684" lon="17.704817"><time>2023-07-05T12:47:09.001Z</time><ele>285.57</ele></trkpt></trkseg></trk></gpx>